Time;durP1;ratioP1;P1;durP2;ratioP2;P2;SDS_P1;SDS_P2;PMS_P1;PMS_P2;Temp;Humidity;BMP_temperature;BMP_pressure;BME280_temperature;BME280_humidity;BME280_pressure;Samples;Min_cycle;Max_cycle;Signal;HPM_P1;HPM_P2
2023/01/18 00:01:02;;;;;;;;;22.50;21.75;;;;;3.95;59.26;98612.88;5038484;28;45581;-62
2023/01/18 00:03:28;;;;;;;;;27.20;20.60;;;;;4.00;59.19;98621.19;5056009;28;45461;-62
2023/01/18 00:05:53;;;;;;;;;23.75;20.00;;;;;3.97;59.73;98613.47;5021123;28;45458;-62
2023/01/18 00:08:19;;;;;;;;;25.00;21.00;;;;;3.90;58.78;98627.13;5038086;28;45437;-62
2023/01/18 00:10:45;;;;;;;;;32.00;28.00;;;;;3.89;59.30;98622.75;5037077;28;48194;-62
2023/01/18 00:13:10;;;;;;;;;32.75;23.25;;;;;3.82;59.06;98624.66;5037540;28;45460;-63
2023/01/18 00:15:36;;;;;;;;;24.00;18.25;;;;;3.85;59.26;98625.03;5055863;28;45424;-62
2023/01/18 00:18:01;;;;;;;;;23.50;19.00;;;;;3.85;59.89;98635.91;5056049;28;45929;-62
2023/01/18 00:20:27;;;;;;;;;22.00;17.25;;;;;3.86;59.20;98634.88;5037478;28;47440;-62
2023/01/18 00:22:53;;;;;;;;;21.75;21.50;;;;;3.71;59.92;98616.19;5037010;28;45654;-61
2023/01/18 00:25:19;;;;;;;;;15.50;15.25;;;;;3.75;59.76;98633.66;5055953;28;45424;-62
2023/01/18 00:27:50;;;;;;;;;21.00;17.00;;;;;3.59;59.85;98624.19;5071083;28;45516;-62
2023/01/18 00:30:16;;;;;;;;;25.20;23.00;;;;;3.68;59.34;98640.22;5037463;28;45575;-63
2023/01/18 00:32:46;;;;;;;;;27.80;17.80;;;;;3.68;59.62;98641.03;5053747;28;45386;-62
2023/01/18 00:35:12;;;;;;;;;26.20;21.40;;;;;3.47;60.39;98618.63;5037319;28;45511;-62
2023/01/18 00:37:37;;;;;;;;;27.50;22.00;;;;;3.67;60.15;98655.66;5055578;28;45529;-62
2023/01/18 00:40:04;;;;;;;;;25.00;21.00;;;;;3.29;60.30;98588.69;5037071;28;45482;-62
2023/01/18 00:45:14;;;;;;;;;28.20;25.80;;;;;3.54;60.86;98634.88;5054890;28;45381;-62
2023/01/18 00:47:39;;;;;;;;;27.25;22.75;;;;;3.63;60.71;98655.25;5055714;28;45635;-62
2023/01/18 00:50:05;;;;;;;;;21.75;20.75;;;;;3.49;60.64;98643.66;5055055;28;46456;-61
2023/01/18 00:52:32;;;;;;;;;23.75;21.00;;;;;3.50;61.02;98652.63;5037038;28;45676;-62
2023/01/18 00:54:58;;;;;;;;;23.80;20.40;;;;;3.57;61.11;98669.69;5037407;28;45351;-61
2023/01/18 00:57:23;;;;;;;;;17.50;17.00;;;;;3.38;61.05;98652.47;5037247;28;45485;-61
2023/01/18 00:59:49;;;;;;;;;20.50;20.50;;;;;3.49;61.01;98681.63;5055056;28;46032;-62
2023/01/18 01:02:15;;;;;;;;;24.25;22.50;;;;;3.45;61.35;98674.97;5055100;28;45300;-62
2023/01/18 01:07:25;;;;;;;;;22.00;16.80;;;;;3.36;61.66;98682.50;5055302;28;45391;-62
2023/01/18 01:09:50;;;;;;;;;24.50;23.00;;;;;3.20;62.04;98656.72;5054854;28;45934;-62
2023/01/18 01:26:07;;;;;;;;;25.60;20.60;;;;;3.34;61.42;98692.75;5036890;28;45591;-62
2023/01/18 01:28:37;;;;;;;;;19.00;10.80;;;;;3.28;61.05;98690.91;5037661;28;45418;-61
2023/01/18 01:31:03;;;;;;;;;20.40;15.20;;;;;3.24;60.70;98697.78;5053799;28;45774;-62
2023/01/18 01:33:29;;;;;;;;;22.60;22.60;;;;;3.07;61.24;98683.88;5038326;28;45409;-63
2023/01/18 01:36:05;;;;;;;;;24.00;21.80;;;;;3.37;61.47;98724.84;5038611;28;45326;-63
2023/01/18 01:38:31;;;;;;;;;20.40;19.00;;;;;3.20;61.82;98694.69;5053771;28;45504;-61
2023/01/18 01:41:05;;;;;;;;;27.50;22.00;;;;;3.29;61.48;98716.13;5053892;28;48220;-62
2023/01/18 01:43:37;;;;;;;;;26.00;21.60;;;;;3.32;61.94;98713.84;5037949;28;45838;-62
2023/01/18 01:46:03;;;;;;;;;21.40;17.60;;;;;3.38;61.42;98731.13;5036593;28;45299;-62
2023/01/18 01:48:29;;;;;;;;;21.00;18.00;;;;;3.38;62.33;98737.38;5053565;28;45826;-62
2023/01/18 01:50:54;;;;;;;;;28.00;22.75;;;;;3.36;62.06;98739.47;5037170;28;45423;-62
2023/01/18 01:53:20;;;;;;;;;25.75;21.00;;;;;3.34;62.09;98735.31;5037758;28;45405;-62
2023/01/18 01:55:45;;;;;;;;;25.75;21.50;;;;;3.34;61.58;98746.16;5036737;28;45493;-62
2023/01/18 01:58:13;;;;;;;;;25.25;19.00;;;;;3.37;62.06;98748.44;5053561;28;45681;-62
2023/01/18 02:00:39;;;;;;;;;23.60;19.40;;;;;3.35;61.85;98743.22;5053113;28;45993;-62
2023/01/18 02:03:06;;;;;;;;;21.75;18.25;;;;;3.29;61.59;98735.09;5036462;28;45616;-61
2023/01/18 02:05:33;;;;;;;;;16.80;16.00;;;;;3.39;62.09;98749.91;5053377;28;45509;-61
2023/01/18 02:07:59;;;;;;;;;20.00;18.60;;;;;3.29;61.80;98745.94;5053073;28;45371;-62
2023/01/18 02:10:25;;;;;;;;;15.40;13.80;;;;;3.36;62.08;98760.34;5039163;28;47318;-62
2023/01/18 02:12:52;;;;;;;;;28.00;19.75;;;;;3.34;61.71;98755.13;5057483;28;45460;-62
2023/01/18 02:15:18;;;;;;;;;24.80;18.40;;;;;3.42;61.74;98767.59;5057893;28;45397;-60
2023/01/18 02:17:49;;;;;;;;;20.20;17.40;;;;;3.42;62.04;98764.88;5073169;28;45559;-62
2023/01/18 02:20:46;;;;;;;;;18.20;16.00;;;;;3.41;61.97;98762.41;5057835;28;46705;-62
2023/01/18 02:23:33;;;;;;;;;25.20;19.40;;;;;3.05;62.08;98697.63;5057605;28;45415;-61
2023/01/18 02:26:36;;;;;;;;;22.60;16.60;;;;;3.44;61.86;98765.53;5040255;28;45345;-61
2023/01/18 02:29:31;;;;;;;;;14.20;13.00;;;;;3.42;61.51;98766.78;5057865;28;45480;-62
2023/01/18 02:32:09;;;;;;;;;23.20;13.60;;;;;3.34;61.72;98767.84;5048812;28;46096;-62
2023/01/18 02:34:49;;;;;;;;;12.40;12.00;;;;;3.32;60.96;98768.06;5072453;28;45425;-62
2023/01/18 02:37:43;;;;;;;;;17.00;14.00;;;;;3.36;61.09;98779.34;5055946;28;45356;-62
2023/01/18 02:40:54;;;;;;;;;17.00;12.00;;;;;3.38;61.25;98778.03;5051788;28;45304;-61
2023/01/18 02:46:29;;;;;;;;;10.40;9.20;;;;;3.33;61.35;98779.75;5041521;28;45360;-61
2023/01/18 02:48:55;;;;;;;;;9.60;8.60;;;;;3.32;61.37;98773.50;5069094;28;45353;-61
2023/01/18 02:51:21;;;;;;;;;9.80;9.80;;;;;3.40;61.29;98785.97;5056245;28;45768;-61
2023/01/18 02:53:46;;;;;;;;;16.50;12.75;;;;;3.38;60.73;98791.59;5056916;28;45380;-63
2023/01/18 02:56:16;;;;;;;;;11.00;8.00;;;;;3.38;60.99;98794.31;5038605;28;45396;-61
2023/01/18 02:59:14;;;;;;;;;12.60;10.40;;;;;3.30;61.53;98782.91;5055699;28;45440;-61
2023/01/18 03:01:45;;;;;;;;;11.20;9.20;;;;;3.10;61.05;98765.59;5022191;28;45388;-61
2023/01/18 03:04:23;;;;;;;;;11.20;9.80;;;;;3.31;60.83;98803.53;5020008;28;46239;-61
2023/01/18 03:06:52;;;;;;;;;13.00;9.40;;;;;3.27;60.34;98808.56;5055382;28;45717;-61
2023/01/18 03:09:20;;;;;;;;;14.60;9.60;;;;;3.30;60.78;98810.81;5017219;28;45387;-61
2023/01/18 03:12:16;;;;;;;;;10.80;8.00;;;;;3.07;60.30;98771.47;5056907;28;45402;-61
2023/01/18 03:15:04;;;;;;;;;14.80;12.60;;;;;3.29;61.02;98813.75;5056627;28;45844;-62
2023/01/18 03:17:41;;;;;;;;;22.40;13.40;;;;;3.33;60.80;98818.56;5054918;28;45458;-61
2023/01/18 03:20:11;;;;;;;;;14.40;11.00;;;;;3.32;60.95;98821.47;5054350;28;45277;-62
2023/01/18 03:25:40;;;;;;;;;11.60;9.60;;;;;3.28;61.56;98826.47;5040986;28;45410;-61
2023/01/18 03:33:52;;;;;;;;;11.00;11.00;;;;;2.96;60.96;98778.38;5055504;28;45689;-62
2023/01/18 03:36:27;;;;;;;;;14.20;9.00;;;;;3.28;61.73;98834.63;5037966;28;46312;-62
2023/01/18 03:38:59;;;;;;;;;13.40;10.40;;;;;3.22;61.38;98836.31;5071687;28;45409;-62
2023/01/18 03:41:27;;;;;;;;;15.20;13.80;;;;;3.19;61.37;98841.28;5071028;28;45378;-62
2023/01/18 03:43:54;;;;;;;;;21.60;13.40;;;;;3.13;62.19;98834.84;5038225;28;45644;-62
2023/01/18 03:46:19;;;;;;;;;17.80;13.20;;;;;3.06;61.52;98829.44;5054370;28;46718;-63
2023/01/18 03:48:45;;;;;;;;;15.75;14.50;;;;;3.15;61.74;98845.47;5071062;28;45341;-62
2023/01/18 03:51:31;;;;;;;;;15.25;13.25;;;;;2.95;61.90;98828.16;5071892;28;45380;-62
2023/01/18 03:54:04;;;;;;;;;16.00;15.20;;;;;3.11;61.67;98862.16;5038473;28;45327;-61
2023/01/18 03:56:39;;;;;;;;;16.60;13.60;;;;;3.09;62.08;98868.81;5037387;28;45372;-61
2023/01/18 03:59:04;;;;;;;;;20.20;18.60;;;;;3.05;62.35;98871.13;5055685;28;45350;-61
2023/01/18 04:01:30;;;;;;;;;17.50;17.50;;;;;3.06;62.37;98875.53;5037590;28;45402;-61
2023/01/18 04:03:55;;;;;;;;;17.25;16.25;;;;;2.87;62.26;98851.97;5054944;28;45344;-62
2023/01/18 04:06:22;;;;;;;;;21.25;16.75;;;;;3.02;62.74;98881.53;5055627;28;46098;-63
2023/01/18 04:08:51;;;;;;;;;22.20;17.60;;;;;3.01;62.43;98877.16;5071024;28;45472;-61
2023/01/18 04:11:16;;;;;;;;;20.60;19.40;;;;;3.08;62.62;98892.41;5037685;28;45437;-62
2023/01/18 04:13:42;;;;;;;;;18.75;17.75;;;;;3.03;61.91;98888.66;5055486;28;45420;-62
2023/01/18 04:16:07;;;;;;;;;20.75;19.50;;;;;3.01;62.13;98899.69;5055717;28;45331;-62
2023/01/18 04:18:33;;;;;;;;;19.25;16.25;;;;;3.00;62.50;98905.31;5055640;28;45429;-61
2023/01/18 04:20:58;;;;;;;;;19.00;15.00;;;;;2.89;62.23;98896.78;5038074;28;45355;-61
2023/01/18 04:23:24;;;;;;;;;18.00;15.25;;;;;2.94;62.45;98904.28;5020985;28;45593;-62
2023/01/18 04:25:50;;;;;;;;;22.25;19.25;;;;;2.93;62.45;98916.19;5029489;28;45846;-61
2023/01/18 04:28:24;;;;;;;;;24.20;16.40;;;;;2.92;62.70;98915.31;5037259;28;45345;-61
2023/01/18 04:30:55;;;;;;;;;18.80;16.20;;;;;2.89;62.60;98915.75;5055689;28;45357;-61
2023/01/18 04:33:21;;;;;;;;;16.40;15.40;;;;;2.93;62.45;98927.00;5055666;28;45409;-61
2023/01/18 04:35:47;;;;;;;;;13.50;9.75;;;;;2.75;63.02;98895.91;5054950;28;45407;-61
2023/01/18 04:38:13;;;;;;;;;22.25;16.50;;;;;2.95;62.80;98928.44;5037367;28;45372;-61
2023/01/18 04:40:38;;;;;;;;;15.75;12.50;;;;;2.84;62.62;98924.47;5055485;28;45365;-61
2023/01/18 04:43:04;;;;;;;;;20.50;15.00;;;;;2.90;62.52;98933.69;5055418;28;45286;-61
2023/01/18 04:45:29;;;;;;;;;20.00;14.25;;;;;2.89;62.49;98936.59;5054972;28;46244;-62
2023/01/18 04:47:55;;;;;;;;;15.75;15.75;;;;;2.91;62.44;98945.34;5053774;28;45263;-61
2023/01/18 04:50:20;;;;;;;;;17.25;14.00;;;;;2.94;62.41;98948.47;5071014;28;45301;-61
2023/01/18 04:52:46;;;;;;;;;24.50;19.25;;;;;2.86;62.81;98937.84;5055611;28;45467;-61
2023/01/18 04:55:14;;;;;;;;;16.50;14.50;;;;;2.87;62.32;98933.25;5053847;28;46352;-61
2023/01/18 04:57:43;;;;;;;;;15.60;14.60;;;;;2.55;62.57;98885.88;5055025;28;45497;-61
2023/01/18 05:00:14;;;;;;;;;17.60;16.40;;;;;2.92;62.33;98949.72;5054410;28;45334;-61
2023/01/18 05:02:39;;;;;;;;;17.00;17.00;;;;;2.91;62.72;98942.63;5055499;28;45735;-62
2023/01/18 05:05:06;;;;;;;;;18.75;13.00;;;;;2.90;62.25;98946.38;5055039;28;45671;-61
2023/01/18 05:07:32;;;;;;;;;15.40;13.80;;;;;2.89;62.23;98947.44;5055297;28;45428;-62
2023/01/18 05:10:01;;;;;;;;;15.60;12.80;;;;;2.95;62.31;98960.16;5053726;28;45393;-62
2023/01/18 05:12:27;;;;;;;;;17.20;15.80;;;;;2.93;62.59;98962.25;5037417;28;45325;-61
2023/01/18 05:14:53;;;;;;;;;16.25;15.00;;;;;2.62;62.63;98910.25;5054555;28;45320;-61
2023/01/18 05:17:18;;;;;;;;;23.25;18.25;;;;;2.84;62.34;98946.16;5055053;28;45259;-61
2023/01/18 05:19:45;;;;;;;;;15.00;13.25;;;;;2.89;62.21;98959.13;5036543;28;45351;-61
2023/01/18 05:22:11;;;;;;;;;20.20;17.80;;;;;2.95;62.38;98965.56;5055128;28;45490;-61
2023/01/18 05:24:36;;;;;;;;;18.50;15.00;;;;;2.29;62.55;98873.94;5054602;28;45482;-61
2023/01/18 05:27:02;;;;;;;;;16.25;16.25;;;;;2.69;62.48;98942.81;5035154;27;45931;-62
2023/01/18 05:29:28;;;;;;;;;16.50;13.00;;;;;2.90;61.97;98971.63;5050209;28;45391;-62
2023/01/18 05:31:53;;;;;;;;;15.25;12.50;;;;;2.96;62.20;98986.22;5055002;28;45571;-61
2023/01/18 05:34:18;;;;;;;;;17.25;12.50;;;;;2.90;62.44;98973.47;5054665;28;45715;-62
2023/01/18 05:36:46;;;;;;;;;14.25;14.25;;;;;2.92;62.45;98985.78;5054641;28;45259;-62
2023/01/18 05:39:11;;;;;;;;;17.60;16.20;;;;;2.83;62.46;98976.19;5036921;28;45408;-61
2023/01/18 05:41:37;;;;;;;;;14.50;14.00;;;;;2.92;62.64;98990.38;5037218;28;45585;-61
2023/01/18 05:44:02;;;;;;;;;19.25;17.50;;;;;2.90;62.18;98992.47;5054218;28;45522;-62
2023/01/18 05:46:28;;;;;;;;;17.25;14.50;;;;;2.85;62.41;99002.03;5054601;28;45410;-61
2023/01/18 05:48:57;;;;;;;;;18.25;15.25;;;;;2.77;62.00;98995.97;5054691;28;45381;-62
2023/01/18 05:51:23;;;;;;;;;18.20;12.80;;;;;2.84;62.33;99023.94;5054870;28;45330;-62
2023/01/18 05:53:48;;;;;;;;;16.00;16.00;;;;;2.83;62.50;99020.38;5054617;28;46325;-61
2023/01/18 05:56:14;;;;;;;;;15.75;14.25;;;;;2.84;62.61;99027.47;5054070;28;45315;-62
2023/01/18 05:58:39;;;;;;;;;18.00;15.50;;;;;2.78;62.45;99005.78;5053448;28;45291;-61
2023/01/18 06:01:07;;;;;;;;;15.00;12.50;;;;;2.68;62.40;98995.31;5036747;28;45215;-62
2023/01/18 06:03:32;;;;;;;;;11.20;9.60;;;;;2.62;62.58;98986.13;5054523;28;47140;-61
2023/01/18 06:05:58;;;;;;;;;24.00;17.25;;;;;2.84;62.13;99032.06;5054555;28;45416;-62
2023/01/18 06:08:23;;;;;;;;;16.75;15.00;;;;;2.81;62.05;99017.03;5054207;28;45313;-62
2023/01/18 06:10:56;;;;;;;;;23.25;15.50;;;;;2.76;62.31;99022.22;5055848;28;45382;-61
2023/01/18 06:13:22;;;;;;;;;16.20;14.60;;;;;2.76;62.20;99035.78;5039521;28;46274;-62
2023/01/18 06:15:47;;;;;;;;;12.75;12.75;;;;;2.78;62.55;99041.00;5073065;28;46727;-60
2023/01/18 06:18:13;;;;;;;;;18.50;16.50;;;;;2.80;62.33;99047.88;5057254;28;45444;-63
2023/01/18 06:20:39;;;;;;;;;17.50;12.75;;;;;2.77;62.23;99055.59;5057768;28;45483;-62
2023/01/18 06:23:04;;;;;;;;;18.50;14.50;;;;;2.78;62.25;99062.69;5039847;28;45470;-62
2023/01/18 06:25:30;;;;;;;;;16.75;13.25;;;;;2.80;62.25;99066.00;5057456;28;45331;-61
2023/01/18 06:27:55;;;;;;;;;14.50;12.25;;;;;2.69;62.20;99067.44;5057834;28;45295;-61
2023/01/18 06:30:21;;;;;;;;;18.00;13.50;;;;;2.56;61.93;99058.19;5039679;28;45454;-62
2023/01/18 06:32:49;;;;;;;;;15.25;13.75;;;;;2.60;62.53;99074.06;5057588;28;45939;-61
2023/01/18 06:35:15;;;;;;;;;19.20;16.00;;;;;2.62;62.56;99080.09;5057393;28;45342;-62
2023/01/18 06:37:40;;;;;;;;;20.50;13.50;;;;;2.58;62.53;99066.13;5057337;28;45414;-61
2023/01/18 06:40:08;;;;;;;;;13.25;13.25;;;;;2.66;62.60;99081.38;5039997;28;45338;-62
2023/01/18 06:42:33;;;;;;;;;15.80;15.60;;;;;2.64;62.81;99089.72;5057042;28;46201;-61
2023/01/18 06:44:59;;;;;;;;;18.50;15.25;;;;;2.47;63.23;99064.81;5056982;28;45381;-62
2023/01/18 06:47:24;;;;;;;;;15.00;12.75;;;;;2.60;62.75;99091.13;5057257;28;45470;-63
2023/01/18 06:49:50;;;;;;;;;14.25;13.50;;;;;2.69;62.65;99110.78;5057480;28;45417;-62
2023/01/18 06:52:15;;;;;;;;;9.50;9.00;;;;;2.37;63.20;99076.03;5056947;28;45513;-61
2023/01/18 06:54:41;;;;;;;;;16.00;14.25;;;;;2.53;63.09;99111.94;5056700;28;45455;-62
2023/01/18 06:57:06;;;;;;;;;19.50;15.00;;;;;2.43;62.75;99115.84;5038918;28;45758;-61
2023/01/18 06:59:32;;;;;;;;;16.25;14.25;;;;;2.51;63.59;99122.97;5056962;28;45422;-61
2023/01/18 07:01:57;;;;;;;;;18.50;14.00;;;;;2.53;63.82;99125.47;5056978;28;46252;-63
2023/01/18 07:04:23;;;;;;;;;17.75;13.50;;;;;2.50;63.31;99134.84;5055347;28;45318;-62
2023/01/18 07:06:48;;;;;;;;;12.75;12.75;;;;;2.51;63.23;99130.28;5056994;28;45860;-62
2023/01/18 07:09:19;;;;;;;;;20.25;13.00;;;;;2.41;63.94;99128.72;5056891;28;45318;-62
2023/01/18 07:11:45;;;;;;;;;18.40;15.60;;;;;2.25;63.70;99100.09;5038404;28;47943;-61
2023/01/18 07:14:11;;;;;;;;;16.00;15.40;;;;;2.52;63.57;99131.94;5056675;28;45462;-61
2023/01/18 07:16:37;;;;;;;;;19.40;14.00;;;;;2.53;63.66;99139.88;5056355;28;45411;-61
2023/01/18 07:19:03;;;;;;;;;25.00;23.50;;;;;2.35;63.63;99120.56;5072545;28;45332;-62
2023/01/18 07:21:29;;;;;;;;;26.00;14.25;;;;;2.45;63.41;99145.41;5056153;28;45306;-62
2023/01/18 07:23:56;;;;;;;;;21.25;20.25;;;;;2.48;63.93;99153.16;5055388;28;45201;-62
2023/01/18 07:26:21;;;;;;;;;25.80;20.40;;;;;2.51;63.69;99157.34;5055088;28;45380;-62
2023/01/18 07:28:47;;;;;;;;;16.50;13.00;;;;;2.41;63.84;99141.44;5056769;28;45525;-61
2023/01/18 07:31:12;;;;;;;;;22.75;18.50;;;;;2.41;63.63;99157.69;5054930;28;46116;-61
2023/01/18 07:33:38;;;;;;;;;23.25;22.00;;;;;2.51;63.96;99163.59;5038242;28;45414;-61
2023/01/18 07:36:05;;;;;;;;;25.00;21.75;;;;;2.52;64.20;99184.22;5071593;28;45385;-60
2023/01/18 07:38:31;;;;;;;;;27.00;20.40;;;;;2.43;63.98;99171.88;5038584;28;45433;-60
2023/01/18 07:41:02;;;;;;;;;22.00;20.25;;;;;2.38;64.76;99183.31;5056041;28;45488;-62
2023/01/18 07:43:29;;;;;;;;;16.00;16.00;;;;;2.38;64.36;99193.28;5056382;28;45398;-61
2023/01/18 07:45:56;;;;;;;;;24.00;21.20;;;;;2.34;64.28;99183.91;5037619;28;45489;-63
2023/01/18 07:48:23;;;;;;;;;31.00;24.25;;;;;2.45;64.43;99202.28;5038414;28;45561;-62
2023/01/18 07:50:55;;;;;;;;;27.40;23.20;;;;;2.41;64.07;99201.84;5071606;28;45314;-62
2023/01/18 07:53:21;;;;;;;;;17.40;16.40;;;;;2.01;64.27;99144.69;5056382;28;45443;-61
2023/01/18 07:55:48;;;;;;;;;15.40;9.80;;;;;2.34;63.99;99219.09;5056168;28;45460;-63
2023/01/18 07:58:13;;;;;;;;;21.00;21.00;;;;;2.27;64.66;99205.50;5038590;28;45436;-60
2023/01/18 08:00:39;;;;;;;;;24.00;22.75;;;;;2.28;64.81;99207.16;5056131;28;46130;-60
2023/01/18 08:03:04;;;;;;;;;24.50;20.50;;;;;2.34;64.28;99214.50;5037821;28;45390;-60
2023/01/18 08:05:33;;;;;;;;;28.75;24.50;;;;;2.33;64.73;99220.97;5072022;28;45500;-61
2023/01/18 08:07:59;;;;;;;;;30.00;27.75;;;;;2.41;64.71;99218.09;5056204;28;45385;-61
2023/01/18 08:10:26;;;;;;;;;23.75;22.75;;;;;2.30;64.62;99197.81;5056059;28;45566;-61
2023/01/18 08:12:51;;;;;;;;;29.20;24.80;;;;;2.46;64.08;99225.66;5032198;28;45373;-62
2023/01/18 08:15:17;;;;;;;;;24.75;20.75;;;;;2.25;64.50;99197.56;5048371;28;45408;-62
2023/01/18 08:17:42;;;;;;;;;40.75;24.00;;;;;2.22;64.47;99199.81;5056093;28;45554;-62
2023/01/18 08:20:09;;;;;;;;;23.50;19.00;;;;;2.46;64.48;99238.34;5037746;28;45629;-61
2023/01/18 08:22:37;;;;;;;;;26.80;23.80;;;;;2.23;64.47;99220.47;5055852;28;45410;-62
2023/01/18 08:25:03;;;;;;;;;26.40;23.40;;;;;2.33;65.11;99247.22;5055888;28;45465;-62
2023/01/18 08:27:29;;;;;;;;;26.50;22.00;;;;;2.35;64.89;99248.66;5056319;28;45370;-63
2023/01/18 08:29:55;;;;;;;;;29.25;23.50;;;;;2.36;64.65;99254.94;5037930;28;45999;-62
2023/01/18 08:32:21;;;;;;;;;34.20;24.00;;;;;2.15;64.88;99262.03;5055105;28;45439;-61
2023/01/18 08:34:46;;;;;;;;;34.00;31.00;;;;;2.02;65.43;99257.31;5056002;28;45339;-60
2023/01/18 08:37:12;;;;;;;;;23.25;20.50;;;;;1.96;65.58;99241.84;5037349;28;45510;-63
2023/01/18 08:39:37;;;;;;;;;30.75;21.50;;;;;2.16;66.04;99259.16;5054162;28;46837;-63
2023/01/18 08:42:03;;;;;;;;;30.25;23.00;;;;;2.25;65.07;99264.44;5055470;28;45322;-63
2023/01/18 08:44:29;;;;;;;;;31.20;22.40;;;;;2.30;65.31;99264.69;5036942;28;45453;-63
2023/01/18 08:46:54;;;;;;;;;26.75;23.50;;;;;2.37;64.77;99253.91;5055496;28;45283;-63
2023/01/18 08:49:21;;;;;;;;;25.00;22.75;;;;;2.42;64.50;99263.09;5054839;28;46064;-62
2023/01/18 08:51:47;;;;;;;;;28.80;24.40;;;;;2.46;64.69;99269.00;5037168;28;45344;-65
2023/01/18 08:54:12;;;;;;;;;30.00;27.50;;;;;2.50;64.68;99267.56;5036683;28;45297;-63
2023/01/18 08:56:38;;;;;;;;;28.75;23.00;;;;;2.54;64.67;99286.97;5036916;28;45378;-62
2023/01/18 08:59:06;;;;;;;;;29.75;26.50;;;;;2.46;64.71;99274.41;5054941;28;46044;-62
2023/01/18 09:01:32;;;;;;;;;30.60;24.00;;;;;2.51;64.58;99271.94;5053365;28;45490;-63
2023/01/18 09:03:57;;;;;;;;;37.25;31.50;;;;;2.36;64.17;99258.50;5055233;28;45348;-63
2023/01/18 09:06:23;;;;;;;;;33.00;30.25;;;;;2.57;64.36;99298.25;5054793;28;45327;-62
2023/01/18 09:08:48;;;;;;;;;26.00;24.00;;;;;2.56;64.55;99304.69;5036686;28;47811;-64
2023/01/18 09:11:14;;;;;;;;;32.50;25.00;;;;;2.59;64.22;99322.44;5036579;28;45268;-61
2023/01/18 09:13:40;;;;;;;;;30.75;24.75;;;;;2.61;63.70;99331.19;5040390;28;45603;-63
2023/01/18 09:16:06;;;;;;;;;31.00;24.75;;;;;2.43;64.20;99301.88;5052117;28;45540;-63
2023/01/18 09:18:32;;;;;;;;;43.80;33.00;;;;;2.66;64.38;99322.50;5036217;28;46002;-63
2023/01/18 09:20:58;;;;;;;;;32.25;26.75;;;;;2.50;63.98;99308.19;5054858;28;45387;-62
2023/01/18 09:23:24;;;;;;;;;24.75;23.75;;;;;2.55;64.15;99316.56;5036996;28;45363;-62
2023/01/18 09:26:19;;;;;;;;;34.25;25.75;;;;;2.65;63.94;99335.22;5054850;28;45350;-63
2023/01/18 09:28:51;;;;;;;;;33.80;25.60;;;;;2.41;63.80;99310.19;5054723;28;45408;-61
2023/01/18 09:31:17;;;;;;;;;28.80;24.80;;;;;2.58;63.53;99347.84;5054865;28;45384;-61
2023/01/18 09:33:42;;;;;;;;;33.20;23.60;;;;;2.61;64.05;99357.47;5036534;28;45308;-64
2023/01/18 09:36:09;;;;;;;;;28.00;27.75;;;;;2.56;63.70;99355.34;5054667;28;45331;-62
2023/01/18 09:38:35;;;;;;;;;26.00;24.40;;;;;2.54;63.66;99363.66;5019296;28;48512;-64
2023/01/18 09:41:01;;;;;;;;;26.20;23.20;;;;;2.29;63.60;99334.25;5054783;28;45375;-63
2023/01/18 09:43:29;;;;;;;;;22.60;22.20;;;;;2.58;63.82;99370.34;5053440;28;45407;-63
2023/01/18 09:45:55;;;;;;;;;26.20;20.60;;;;;2.61;63.38;99365.59;5035531;28;46012;-63
2023/01/18 09:48:38;;;;;;;;;22.40;22.00;;;;;2.56;63.78;99374.31;5034943;28;45567;-63
2023/01/18 09:51:27;;;;;;;;;27.40;20.40;;;;;2.60;63.51;99382.88;5036072;28;45382;-63
2023/01/18 09:54:22;;;;;;;;;21.80;21.20;;;;;2.65;63.46;99389.41;5034882;28;45845;-62
2023/01/18 09:56:56;;;;;;;;;20.20;19.80;;;;;2.62;63.31;99378.09;5052500;28;45401;-63
2023/01/18 09:59:28;;;;;;;;;20.80;18.40;;;;;2.47;63.33;99351.06;5035611;28;46542;-63
2023/01/18 10:01:53;;;;;;;;;28.20;20.00;;;;;2.67;63.04;99395.44;5053227;28;45437;-63
2023/01/18 10:04:39;;;;;;;;;24.00;15.75;;;;;2.68;63.08;99391.72;5018517;28;45550;-61
2023/01/18 10:07:05;;;;;;;;;26.20;18.20;;;;;2.77;63.19;99394.31;5053860;28;45921;-61
2023/01/18 10:09:48;;;;;;;;;17.60;15.40;;;;;2.78;62.93;99401.41;5052157;28;46307;-62
2023/01/18 10:12:20;;;;;;;;;16.80;16.80;;;;;2.83;63.52;99402.47;5034836;28;45432;-62
2023/01/18 10:14:50;;;;;;;;;15.60;14.40;;;;;2.78;62.88;99396.81;5035190;28;45534;-62
2023/01/18 10:17:21;;;;;;;;;20.40;16.40;;;;;2.65;63.18;99385.84;5018924;28;45462;-62
2023/01/18 10:19:47;;;;;;;;;19.40;18.20;;;;;2.78;63.08;99407.63;5018720;28;46023;-63
2023/01/18 10:22:31;;;;;;;;;20.25;16.00;;;;;2.82;63.66;99399.97;5033629;28;45331;-61
2023/01/18 10:25:33;;;;;;;;;20.40;17.20;;;;;2.90;63.36;99401.72;5052029;28;45410;-64
2023/01/18 10:28:38;;;;;;;;;15.20;15.20;;;;;2.96;63.06;99409.91;5051652;28;45534;-62
2023/01/18 10:31:09;;;;;;;;;15.40;14.20;;;;;3.00;63.14;99415.78;5014524;28;46685;-62
2023/01/18 10:33:37;;;;;;;;;19.00;16.80;;;;;3.05;63.24;99418.72;5052132;28;45398;-62
2023/01/18 10:36:12;;;;;;;;;14.20;13.00;;;;;3.10;63.21;99423.59;5035020;28;45505;-61
2023/01/18 10:38:39;;;;;;;;;13.60;12.80;;;;;3.18;63.05;99434.28;5035240;28;45514;-62
2023/01/18 10:41:05;;;;;;;;;12.80;12.20;;;;;3.11;62.52;99423.38;5051391;28;45564;-61
2023/01/18 10:43:30;;;;;;;;;12.00;12.00;;;;;3.19;63.56;99424.25;5051451;28;45453;-64
2023/01/18 10:45:56;;;;;;;;;9.00;9.00;;;;;3.27;63.03;99426.84;5038337;27;45445;-62
2023/01/18 10:48:21;;;;;;;;;11.00;8.50;;;;;3.30;62.79;99431.88;5034885;28;45524;-62
2023/01/18 10:50:48;;;;;;;;;15.00;9.75;;;;;3.32;63.15;99434.41;5053042;28;46385;-61
2023/01/18 10:53:36;;;;;;;;;17.00;13.20;;;;;3.21;63.05;99428.47;5034182;28;46054;-61
2023/01/18 10:56:11;;;;;;;;;13.60;9.20;;;;;3.24;63.37;99435.38;5051645;28;45434;-61
2023/01/18 10:58:45;;;;;;;;;14.20;10.00;;;;;3.24;63.37;99432.66;5050510;28;45646;-61
2023/01/18 11:01:21;;;;;;;;;13.60;9.80;;;;;3.06;63.54;99379.75;5032560;28;46309;-61
2023/01/18 11:04:16;;;;;;;;;10.80;9.40;;;;;3.37;63.68;99416.47;5028366;28;45402;-61
2023/01/18 11:06:55;;;;;;;;;14.40;11.60;;;;;3.38;63.74;99414.63;5043218;28;46049;-61
2023/01/18 11:09:42;;;;;;;;;9.40;9.40;;;;;3.30;63.65;99393.06;5053024;28;45500;-62
2023/01/18 11:12:51;;;;;;;;;9.60;8.60;;;;;3.45;63.59;99426.34;5034663;28;46682;-64
2023/01/18 11:15:16;;;;;;;;;9.80;8.60;;;;;3.34;63.82;99392.47;5048119;28;45494;-65
2023/01/18 11:17:54;;;;;;;;;8.75;8.75;;;;;3.52;63.70;99418.25;5052148;28;45323;-64
2023/01/18 11:20:39;;;;;;;;;8.80;8.60;;;;;3.29;63.40;99370.53;5036073;28;45525;-68
2023/01/18 11:23:14;;;;;;;;;6.20;5.80;;;;;3.67;63.68;99410.00;5067084;28;45830;-63
2023/01/18 11:25:50;;;;;;;;;6.00;6.00;;;;;3.66;63.43;99390.19;5031732;28;45867;-61
2023/01/18 11:28:20;;;;;;;;;8.60;7.00;;;;;3.79;62.76;99394.03;5049547;28;45885;-61
2023/01/18 11:30:58;;;;;;;;;11.20;9.60;;;;;3.89;62.74;99401.78;5031189;28;45811;-61
2023/01/18 11:33:25;;;;;;;;;8.20;8.20;;;;;3.96;62.26;99399.94;5048770;28;45598;-63
2023/01/18 11:35:52;;;;;;;;;9.60;8.60;;;;;4.08;62.30;99402.91;5050510;28;45524;-66
2023/01/18 11:38:18;;;;;;;;;13.80;12.80;;;;;7.08;59.35;99382.94;5014316;28;45819;-60
2023/01/18 11:40:44;;;;;;;;;9.75;9.75;;;;;12.40;46.08;99360.38;5050493;28;45447;-58
2023/01/18 11:43:16;;;;;;;;;10.80;8.40;;;;;16.11;38.88;99374.22;5033480;28;48425;-62
2023/01/18 11:46:23;;;;;;;;;10.20;5.60;;;;;19.08;32.97;99384.22;5033082;28;45561;-64
2023/01/18 11:48:54;;;;;;;;;9.60;5.60;;;;;20.69;30.05;99344.94;5013822;28;45482;-64
2023/01/18 11:51:23;;;;;;;;;8.40;7.20;;;;;19.01;30.44;99347.59;5020456;28;45574;-62
2023/01/18 11:53:57;;;;;;;;;6.80;4.00;;;;;15.56;34.83;99368.53;5054000;28;46022;-61
2023/01/18 11:56:32;;;;;;;;;8.60;5.80;;;;;12.89;39.02;99361.41;5054541;28;45816;-62
2023/01/18 11:58:59;;;;;;;;;7.20;5.40;;;;;11.43;41.06;99380.78;5054904;28;45364;-63
2023/01/18 12:02:00;;;;;;;;;3.80;3.80;;;;;10.00;44.15;99384.19;5055153;28;45672;-64
2023/01/18 12:04:44;;;;;;;;;7.40;6.40;;;;;8.94;46.84;99362.91;5041869;27;45429;-64
2023/01/18 12:07:35;;;;;;;;;8.00;6.40;;;;;8.32;47.92;99385.00;5020122;28;45547;-65
2023/01/18 12:10:01;;;;;;;;;7.20;5.80;;;;;7.84;49.79;99390.19;5032117;28;45204;-64